createdAt,value
2022-12-02T00:00:16.934Z,12.00
2022-12-02T00:02:44.492Z,12.05
2022-12-02T00:05:11.932Z,12.65
2022-12-02T00:07:39.263Z,12.25
2022-12-02T00:10:27.831Z,12.43
2022-12-02T00:12:55.207Z,10.75
2022-12-02T00:15:43.378Z,10.88
2022-12-02T00:18:15.779Z,11.20
2022-12-02T00:20:44.047Z,11.68
2022-12-02T00:23:11.722Z,11.68
2022-12-02T00:25:39.114Z,11.38
2022-12-02T00:28:06.276Z,11.70
2022-12-02T00:30:33.238Z,11.80
2022-12-02T00:33:00.523Z,11.25
2022-12-02T00:35:27.556Z,12.57
2022-12-02T00:37:54.420Z,11.43
2022-12-02T00:40:21.321Z,9.98
2022-12-02T00:42:48.471Z,12.50
2022-12-02T00:45:35.118Z,11.40
2022-12-02T00:48:02.056Z,10.32
2022-12-02T00:50:29.438Z,11.23
2022-12-02T00:52:56.587Z,10.68
2022-12-02T00:55:23.757Z,10.88
2022-12-02T00:57:50.672Z,9.77
2022-12-02T01:00:18.233Z,9.77
2022-12-02T01:02:45.554Z,9.50
2022-12-02T01:05:12.436Z,10.82
2022-12-02T01:07:39.461Z,8.97
2022-12-02T01:10:06.976Z,8.60
2022-12-02T01:12:34.501Z,8.20
2022-12-02T01:15:01.559Z,8.40
2022-12-02T01:17:28.421Z,7.88
2022-12-02T01:19:55.272Z,8.35
2022-12-02T01:22:22.248Z,8.43
2022-12-02T01:24:51.549Z,8.25
2022-12-02T01:27:18.965Z,9.40
2022-12-02T01:29:45.811Z,7.95
2022-12-02T01:32:12.888Z,8.32
2022-12-02T01:34:41.579Z,7.55
2022-12-02T01:37:09.423Z,7.50
2022-12-02T01:39:36.298Z,7.28
2022-12-02T01:42:03.765Z,7.68
2022-12-02T01:44:31.224Z,7.97
2022-12-02T01:46:58.824Z,7.50
2022-12-02T01:49:26.106Z,7.90
2022-12-02T01:51:53.291Z,7.57
2022-12-02T01:54:20.603Z,6.95
2022-12-02T01:56:47.792Z,7.47
2022-12-02T01:59:16.768Z,6.47
2022-12-02T02:01:43.752Z,5.88
2022-12-02T02:04:11.941Z,6.68
2022-12-02T02:06:42.770Z,6.43
2022-12-02T02:09:10.713Z,6.75
2022-12-02T02:11:40.228Z,5.22
2022-12-02T02:14:09.872Z,6.03
2022-12-02T02:19:08.026Z,5.88
2022-12-02T02:21:42.809Z,5.80
2022-12-02T02:24:09.895Z,6.00
2022-12-02T02:26:37.346Z,5.18
2022-12-02T02:29:04.852Z,5.75
2022-12-02T02:31:32.966Z,5.00
2022-12-02T02:34:00.386Z,6.32
2022-12-02T02:36:27.540Z,5.47
2022-12-02T02:38:56.267Z,5.72
2022-12-02T02:41:23.592Z,6.18
2022-12-02T02:43:50.517Z,5.88
2022-12-02T02:46:17.612Z,6.60
2022-12-02T02:48:45.279Z,7.60
2022-12-02T02:51:13.522Z,7.40
2022-12-02T02:53:41.418Z,7.43
2022-12-02T02:56:10.274Z,6.90
2022-12-02T02:58:39.169Z,6.97
2022-12-02T03:01:17.028Z,7.13
2022-12-02T03:03:49.074Z,7.35
2022-12-02T03:06:17.438Z,7.70
2022-12-02T03:08:48.019Z,6.93
2022-12-02T03:11:15.485Z,8.10
2022-12-02T03:13:44.262Z,7.55
2022-12-02T03:16:14.367Z,6.90
2022-12-02T03:18:43.836Z,6.78
2022-12-02T03:21:11.565Z,7.13
2022-12-02T03:23:38.671Z,7.38
2022-12-02T03:26:06.220Z,6.88
2022-12-02T03:28:34.326Z,7.25
2022-12-02T03:31:01.549Z,6.82
2022-12-02T03:33:29.321Z,6.75
2022-12-02T03:35:56.400Z,7.32
2022-12-02T03:38:23.551Z,6.05
2022-12-02T03:40:50.649Z,6.38
2022-12-02T03:43:17.619Z,8.05
2022-12-02T03:45:44.670Z,7.38
2022-12-02T03:48:12.775Z,9.02
2022-12-02T03:50:41.005Z,10.88
2022-12-02T03:53:07.945Z,9.75
2022-12-02T03:55:35.571Z,11.35
2022-12-02T03:58:07.705Z,12.27
2022-12-02T04:00:37.139Z,12.98
2022-12-02T04:03:05.135Z,14.10
2022-12-02T04:05:32.452Z,11.68
2022-12-02T04:07:59.660Z,13.05
2022-12-02T04:10:26.727Z,13.15
2022-12-02T04:12:53.654Z,11.48
2022-12-02T04:15:20.912Z,12.10
2022-12-02T04:17:47.863Z,12.82
2022-12-02T04:20:14.776Z,11.88
2022-12-02T04:22:42.092Z,10.55
2022-12-02T04:25:09.326Z,12.50
2022-12-02T04:27:36.730Z,11.57
2022-12-02T04:30:04.368Z,12.10
2022-12-02T04:32:31.385Z,12.57
2022-12-02T04:34:58.330Z,12.98
2022-12-02T04:37:26.368Z,13.77
2022-12-02T04:39:53.339Z,13.95
2022-12-02T04:42:20.241Z,14.20
2022-12-02T04:44:47.090Z,15.65
2022-12-02T04:47:14.009Z,18.13
2022-12-02T04:49:40.923Z,16.23
2022-12-02T04:52:07.826Z,16.98
2022-12-02T04:54:34.687Z,18.95
2022-12-02T04:57:01.634Z,18.67
2022-12-02T04:59:28.508Z,18.67
2022-12-02T05:01:55.793Z,18.42
2022-12-02T05:04:23.093Z,20.05
2022-12-02T05:06:50.241Z,18.23
2022-12-02T05:09:17.394Z,19.50
2022-12-02T05:11:44.759Z,17.40
2022-12-02T05:14:12.249Z,17.63
2022-12-02T05:16:39.271Z,17.30
2022-12-02T05:19:06.251Z,17.52
2022-12-02T05:21:33.155Z,17.38
2022-12-02T05:24:00.077Z,15.75
2022-12-02T05:26:26.994Z,16.55
2022-12-02T05:28:53.902Z,16.65
2022-12-02T05:31:21.193Z,17.10
2022-12-02T05:33:48.167Z,18.10
2022-12-02T05:36:15.072Z,16.63
2022-12-02T05:38:43.770Z,17.38
2022-12-02T05:41:10.631Z,17.88
2022-12-02T05:43:42.715Z,17.77
2022-12-02T05:46:18.601Z,18.20
2022-12-02T05:48:47.513Z,16.60
2022-12-02T05:51:16.981Z,18.15
2022-12-02T05:53:46.123Z,17.08
2022-12-02T05:56:25.933Z,16.83
2022-12-02T05:58:53.469Z,17.70
2022-12-02T06:01:26.294Z,17.60
2022-12-02T06:03:53.231Z,17.55
2022-12-02T06:06:25.476Z,17.00
2022-12-02T06:08:55.646Z,18.55
2022-12-02T06:11:28.906Z,16.35
2022-12-02T06:14:04.013Z,16.85
2022-12-02T06:16:31.928Z,17.55
2022-12-02T06:19:07.684Z,17.48
2022-12-02T06:21:34.712Z,16.63
2022-12-02T06:24:02.095Z,19.25
2022-12-02T06:26:28.996Z,16.23
2022-12-02T06:29:02.275Z,16.27
2022-12-02T06:31:38.849Z,17.92
2022-12-02T06:34:21.337Z,16.67
2022-12-02T06:36:48.274Z,17.75
2022-12-02T06:39:22.745Z,17.50
2022-12-02T06:41:51.856Z,18.40
2022-12-02T06:44:45.857Z,18.05
2022-12-02T06:47:35.232Z,17.48
2022-12-02T06:50:05.204Z,17.95
2022-12-02T06:52:42.676Z,16.30
2022-12-02T06:55:39.450Z,17.75
2022-12-02T06:58:20.129Z,18.58
2022-12-02T07:00:47.525Z,16.75
2022-12-02T07:03:31.217Z,16.95
2022-12-02T07:06:14.281Z,18.35
2022-12-02T07:08:41.609Z,17.88
2022-12-02T07:11:51.646Z,17.58
2022-12-02T07:14:40.499Z,15.98
2022-12-02T07:17:21.129Z,16.27
2022-12-02T07:19:55.482Z,17.40
2022-12-02T07:22:29.506Z,17.17
2022-12-02T07:25:01.748Z,16.25
2022-12-02T07:27:34.309Z,16.98
2022-12-02T07:30:02.048Z,18.45
2022-12-02T07:32:29.345Z,17.83
2022-12-02T07:34:56.988Z,17.10
2022-12-02T07:37:24.292Z,17.05
2022-12-02T07:39:51.403Z,14.43
2022-12-02T07:42:18.536Z,14.70
2022-12-02T07:44:45.474Z,13.73
2022-12-02T07:47:12.775Z,12.05
2022-12-02T07:49:40.099Z,14.63
2022-12-02T07:52:07.427Z,13.32
2022-12-02T07:54:34.437Z,13.88
2022-12-02T07:57:01.767Z,12.90
2022-12-02T07:59:29.102Z,14.65
2022-12-02T08:01:56.449Z,11.68
2022-12-02T08:04:23.850Z,14.05
2022-12-02T08:06:51.210Z,13.73
2022-12-02T08:09:18.521Z,14.07
2022-12-02T08:11:45.817Z,13.00
2022-12-02T08:14:13.120Z,12.75
2022-12-02T08:16:40.096Z,13.90
2022-12-02T08:19:07.596Z,11.95
2022-12-02T08:21:35.129Z,12.20
2022-12-02T08:24:03.681Z,11.88
2022-12-02T08:26:30.632Z,11.10
2022-12-02T08:28:57.985Z,12.63
2022-12-02T08:31:25.462Z,11.68
2022-12-02T08:33:53.243Z,11.10
2022-12-02T08:36:21.131Z,11.23
2022-12-02T08:38:49.185Z,12.80
2022-12-02T08:41:16.776Z,11.35
2022-12-02T08:43:44.104Z,10.98
2022-12-02T08:46:11.422Z,10.45
2022-12-02T08:48:38.866Z,10.50
2022-12-02T08:51:06.275Z,11.50
2022-12-02T08:53:33.724Z,12.90
2022-12-02T08:56:01.007Z,12.10
2022-12-02T08:58:28.345Z,12.73
2022-12-02T09:00:55.635Z,14.35
2022-12-02T09:03:22.964Z,12.85
2022-12-02T09:05:50.252Z,12.60
2022-12-02T09:08:17.166Z,12.82
2022-12-02T09:10:44.241Z,14.48
2022-12-02T09:13:11.616Z,13.20
2022-12-02T09:15:38.949Z,11.00
2022-12-02T09:18:11.087Z,11.48
2022-12-02T09:20:41.264Z,10.93
2022-12-02T09:23:08.858Z,13.02
2022-12-02T09:25:36.254Z,12.43
2022-12-02T09:28:03.251Z,11.52
2022-12-02T09:30:30.558Z,12.13
2022-12-02T09:32:57.809Z,12.48
2022-12-02T09:35:25.130Z,11.30
2022-12-02T09:37:52.689Z,11.38
2022-12-02T09:40:20.129Z,11.40
2022-12-02T09:42:47.526Z,12.73
2022-12-02T09:45:15.416Z,13.02
2022-12-02T09:47:42.930Z,11.02
2022-12-02T09:50:17.342Z,11.07
2022-12-02T09:52:45.032Z,11.98
2022-12-02T09:55:14.726Z,11.60
2022-12-02T09:57:42.275Z,11.60
2022-12-02T10:00:18.831Z,12.18
2022-12-02T10:02:48.841Z,9.05
2022-12-02T10:05:20.457Z,9.63
2022-12-02T10:07:49.083Z,11.27
2022-12-02T10:10:22.337Z,11.65
2022-12-02T10:12:49.780Z,10.88
2022-12-02T10:15:25.221Z,8.43
2022-12-02T10:17:53.412Z,9.60
2022-12-02T10:20:23.822Z,10.43
2022-12-02T10:23:10.931Z,9.75
2022-12-02T10:25:39.908Z,10.05
2022-12-02T10:28:28.138Z,11.55
2022-12-02T10:31:05.234Z,11.38
2022-12-02T10:33:35.490Z,10.30
2022-12-02T10:36:03.222Z,10.48
2022-12-02T10:38:42.386Z,10.88
2022-12-02T10:41:15.416Z,10.93
2022-12-02T10:44:03.553Z,9.52
2022-12-02T10:46:30.869Z,10.45
2022-12-02T10:49:28.537Z,10.50
2022-12-02T10:51:58.492Z,9.50
2022-12-02T10:54:29.267Z,10.10
2022-12-02T10:56:57.069Z,9.50
2022-12-02T10:59:24.989Z,8.45
2022-12-02T11:01:52.385Z,8.10
2022-12-02T11:04:20.133Z,9.60
2022-12-02T11:06:48.118Z,8.70
2022-12-02T11:09:40.726Z,9.40
2022-12-02T11:12:29.343Z,8.85
2022-12-02T11:14:56.852Z,8.70
2022-12-02T11:17:45.177Z,8.18
2022-12-02T11:20:32.269Z,8.40
2022-12-02T11:22:59.520Z,9.02
2022-12-02T11:25:53.747Z,7.90
2022-12-02T11:28:29.811Z,7.72
2022-12-02T11:31:12.243Z,8.52
2022-12-02T11:33:53.984Z,8.90
2022-12-02T11:36:24.301Z,8.18
2022-12-02T11:38:51.578Z,8.57
2022-12-02T11:41:19.853Z,8.10
2022-12-02T11:43:47.133Z,8.45
2022-12-02T11:46:19.958Z,8.85
2022-12-02T11:48:53.492Z,8.48
2022-12-02T11:51:39.972Z,8.95
2022-12-02T11:54:14.693Z,7.93
2022-12-02T11:56:43.968Z,9.23
2022-12-02T11:59:41.280Z,8.88
2022-12-02T12:02:14.942Z,8.93
2022-12-02T12:04:43.113Z,7.97
2022-12-02T12:07:10.504Z,7.60
2022-12-02T12:09:37.857Z,8.68
2022-12-02T12:12:19.082Z,8.60
2022-12-02T12:15:01.285Z,8.52
2022-12-02T12:17:40.183Z,9.43
2022-12-02T12:20:27.512Z,9.18
2022-12-02T12:22:54.894Z,9.15
2022-12-02T12:25:42.708Z,9.57
2022-12-02T12:28:37.906Z,8.90
2022-12-02T12:31:07.263Z,8.38
2022-12-02T12:33:34.232Z,8.47
2022-12-02T12:36:01.712Z,7.75
2022-12-02T12:38:30.954Z,9.00
2022-12-02T12:40:58.710Z,8.20
2022-12-02T12:43:26.014Z,8.40
2022-12-02T12:45:53.224Z,8.68
2022-12-02T12:48:20.251Z,8.00
2022-12-02T12:50:47.658Z,8.50
2022-12-02T12:53:14.993Z,9.25
2022-12-02T12:55:41.912Z,8.57
2022-12-02T12:58:09.266Z,8.85
2022-12-02T13:00:36.853Z,8.75
2022-12-02T13:03:04.073Z,9.13
2022-12-02T13:05:31.745Z,9.05
2022-12-02T13:07:58.898Z,8.65
2022-12-02T13:10:26.397Z,9.35
2022-12-02T13:12:53.709Z,9.45
2022-12-02T13:15:20.677Z,9.90
2022-12-02T13:17:49.440Z,9.60
2022-12-02T13:20:17.473Z,10.13
2022-12-02T13:22:44.839Z,9.73
2022-12-02T13:25:12.505Z,9.43
2022-12-02T13:27:40.497Z,9.23
2022-12-02T13:30:10.191Z,9.20
2022-12-02T13:32:38.689Z,9.38
2022-12-02T13:35:06.037Z,10.00
2022-12-02T13:37:33.318Z,9.45
2022-12-02T13:40:00.235Z,9.45
2022-12-02T13:42:27.099Z,9.45
2022-12-02T13:44:54.556Z,9.63
2022-12-02T13:47:21.569Z,9.80
2022-12-02T13:49:48.494Z,9.90
2022-12-02T13:52:16.377Z,9.27
2022-12-02T13:54:43.759Z,9.95
2022-12-02T13:57:10.783Z,10.27
2022-12-02T13:59:38.768Z,8.43
2022-12-02T14:02:06.635Z,10.27
2022-12-02T14:04:34.372Z,11.02
2022-12-02T14:07:01.637Z,8.82
2022-12-02T14:09:28.551Z,9.18
2022-12-02T14:11:55.438Z,9.30
2022-12-02T14:14:24.093Z,9.15
2022-12-02T14:16:51.201Z,8.48
2022-12-02T14:19:18.117Z,9.38
2022-12-02T14:21:45.472Z,8.63
2022-12-02T14:24:12.762Z,9.52
2022-12-02T14:26:39.661Z,8.35
2022-12-02T14:29:06.647Z,8.85
2022-12-02T14:31:33.688Z,9.60
2022-12-02T14:34:11.245Z,9.93
2022-12-02T14:36:38.993Z,10.40
2022-12-02T14:39:06.947Z,8.68
2022-12-02T14:41:33.860Z,8.80
2022-12-02T14:44:01.229Z,8.80
2022-12-02T14:46:30.562Z,9.43
2022-12-02T14:49:23.284Z,9.77
2022-12-02T14:51:45.176Z,8.35
2022-12-02T14:54:12.491Z,9.75
2022-12-02T14:56:39.426Z,7.88
2022-12-02T14:59:12.636Z,7.95
2022-12-02T15:01:42.168Z,7.43
2022-12-02T15:04:09.505Z,7.90
2022-12-02T15:06:36.885Z,8.07
2022-12-02T15:09:05.009Z,7.28
2022-12-02T15:11:32.035Z,8.40
2022-12-02T15:13:59.393Z,8.13
2022-12-02T15:16:27.425Z,7.60
2022-12-02T15:18:54.544Z,8.02
2022-12-02T15:21:21.427Z,8.35
2022-12-02T15:23:50.445Z,7.60
2022-12-02T15:26:17.810Z,8.40
2022-12-02T15:28:45.163Z,7.13
2022-12-02T15:31:12.211Z,8.32
2022-12-02T15:33:39.217Z,8.27
2022-12-02T15:36:06.392Z,8.10
2022-12-02T15:38:33.685Z,8.15
2022-12-02T15:41:01.094Z,9.63
2022-12-02T15:43:28.380Z,8.13
2022-12-02T15:45:55.683Z,8.63
2022-12-02T15:48:23.028Z,9.23
2022-12-02T15:50:54.700Z,10.65
2022-12-02T15:53:22.727Z,9.30
2022-12-02T15:55:50.708Z,8.20
2022-12-02T15:58:19.196Z,8.85
2022-12-02T16:00:47.622Z,8.63
2022-12-02T16:03:15.218Z,7.75
2022-12-02T16:05:42.138Z,9.73
2022-12-02T16:08:09.475Z,8.77
2022-12-02T16:10:36.823Z,8.77
2022-12-02T16:13:03.738Z,8.35
2022-12-02T16:15:31.055Z,8.23
2022-12-02T16:17:58.376Z,8.38
2022-12-02T16:20:25.393Z,9.90
2022-12-02T16:22:52.680Z,9.13
2022-12-02T16:25:19.981Z,9.43
2022-12-02T16:27:47.371Z,9.43
2022-12-02T16:30:14.382Z,8.65
2022-12-02T16:32:41.663Z,8.38
2022-12-02T16:35:09.885Z,9.18
2022-12-02T16:37:37.047Z,9.25
2022-12-02T16:40:05.189Z,10.25
2022-12-02T16:42:32.610Z,8.77
2022-12-02T16:44:59.850Z,8.55
2022-12-02T16:47:27.511Z,8.60
2022-12-02T16:49:54.440Z,8.48
2022-12-02T16:52:21.762Z,9.55
2022-12-02T16:54:49.482Z,9.65
2022-12-02T16:57:16.975Z,9.80
2022-12-02T16:59:44.367Z,10.50
2022-12-02T17:02:11.839Z,9.07
2022-12-02T17:04:39.004Z,8.95
2022-12-02T17:07:06.386Z,9.70
2022-12-02T17:09:33.425Z,9.45
2022-12-02T17:12:00.361Z,9.80
2022-12-02T17:14:27.232Z,9.10
2022-12-02T17:16:54.265Z,10.05
2022-12-02T17:19:21.559Z,11.30
2022-12-02T17:21:48.502Z,10.68
2022-12-02T17:24:15.798Z,10.90
2022-12-02T17:26:42.703Z,9.60
2022-12-02T17:29:09.614Z,9.88
2022-12-02T17:31:36.541Z,12.00
2022-12-02T17:34:03.520Z,11.43
2022-12-02T17:36:30.424Z,12.40
2022-12-02T17:38:57.905Z,11.18
2022-12-02T17:41:25.767Z,9.85
2022-12-02T17:43:53.668Z,8.50
2022-12-02T17:46:21.165Z,7.35
2022-12-02T17:48:49.172Z,7.50
2022-12-02T17:51:17.150Z,6.57
2022-12-02T17:53:44.778Z,7.68
2022-12-02T17:56:12.491Z,7.95
2022-12-02T17:58:39.766Z,8.40
2022-12-02T18:01:11.771Z,8.27
2022-12-02T18:03:40.504Z,8.05
2022-12-02T18:06:08.109Z,7.70
2022-12-02T18:08:35.752Z,7.25
2022-12-02T18:11:03.545Z,7.28
2022-12-02T18:13:30.525Z,6.40
2022-12-02T18:15:58.334Z,6.75
2022-12-02T18:18:25.596Z,6.40
2022-12-02T18:20:52.520Z,7.20
2022-12-02T18:23:23.582Z,6.22
2022-12-02T18:25:53.196Z,6.53
2022-12-02T18:28:20.461Z,6.53
2022-12-02T18:30:47.791Z,6.35
2022-12-02T18:33:15.183Z,6.75
2022-12-02T18:35:42.132Z,6.93
2022-12-02T18:38:09.277Z,7.03
2022-12-02T18:40:36.614Z,7.00
2022-12-02T18:43:06.852Z,6.80
2022-12-02T18:45:33.929Z,7.03
2022-12-02T18:48:00.852Z,7.80
2022-12-02T18:50:28.100Z,6.88
2022-12-02T18:52:55.432Z,7.25
2022-12-02T18:55:22.762Z,8.30
2022-12-02T18:57:49.733Z,9.20
2022-12-02T19:00:18.247Z,8.75
2022-12-02T19:02:45.792Z,9.98
2022-12-02T19:05:12.758Z,8.88
2022-12-02T19:07:39.755Z,9.13
2022-12-02T19:10:07.550Z,10.35
2022-12-02T19:12:34.899Z,11.20
2022-12-02T19:15:02.197Z,10.55
2022-12-02T19:17:29.143Z,11.98
2022-12-02T19:19:56.022Z,12.88
2022-12-02T19:22:23.082Z,13.30
2022-12-02T19:24:50.497Z,14.25
2022-12-02T19:30:05.705Z,15.95
2022-12-02T19:32:32.979Z,17.00
2022-12-02T19:35:00.310Z,14.63
2022-12-02T19:37:27.617Z,15.77
2022-12-02T19:39:54.929Z,16.13
2022-12-02T19:42:22.358Z,14.68
2022-12-02T19:44:49.785Z,14.38
2022-12-02T19:47:16.834Z,15.35
2022-12-02T19:49:44.137Z,16.25
2022-12-02T19:52:13.150Z,16.08
2022-12-02T19:54:40.445Z,16.05
2022-12-02T19:57:07.472Z,16.23
2022-12-02T19:59:34.773Z,15.95
2022-12-02T20:02:02.195Z,16.35
2022-12-02T20:04:44.934Z,17.27
2022-12-02T20:07:12.377Z,16.58
2022-12-02T20:09:39.704Z,15.60
2022-12-02T20:12:07.050Z,16.60
2022-12-02T20:14:34.352Z,15.63
2022-12-02T20:17:01.800Z,15.43
2022-12-02T20:19:32.071Z,16.45
2022-12-02T20:21:59.371Z,16.67
2022-12-02T20:24:26.647Z,17.25
2022-12-02T20:26:53.557Z,16.42
2022-12-02T20:29:20.858Z,17.48
2022-12-02T20:31:48.570Z,16.85
2022-12-02T20:34:15.695Z,17.67
2022-12-02T20:36:43.082Z,17.00
2022-12-02T20:39:10.503Z,16.77
2022-12-02T20:41:37.793Z,16.52
2022-12-02T20:44:04.811Z,17.25
2022-12-02T20:46:32.355Z,17.45
2022-12-02T20:48:59.748Z,15.02
2022-12-02T20:51:26.896Z,16.00
2022-12-02T20:53:54.242Z,15.95
2022-12-02T20:56:21.939Z,14.68
2022-12-02T20:58:49.757Z,14.70
2022-12-02T21:01:17.686Z,14.82
2022-12-02T21:03:45.348Z,15.98
2022-12-02T21:06:12.694Z,16.30
2022-12-02T21:08:39.666Z,15.50
2022-12-02T21:11:07.035Z,15.02
2022-12-02T21:13:34.653Z,13.93
2022-12-02T21:16:02.064Z,15.75
2022-12-02T21:18:32.324Z,14.63
2022-12-02T21:21:03.716Z,13.32
2022-12-02T21:23:30.626Z,14.70
2022-12-02T21:25:57.897Z,13.88
2022-12-02T21:28:25.191Z,13.93
2022-12-02T21:30:52.134Z,14.02
2022-12-02T21:33:19.100Z,14.32
2022-12-02T21:35:46.383Z,14.25
2022-12-02T21:38:13.295Z,15.82
2022-12-02T21:40:40.555Z,15.05
2022-12-02T21:43:11.632Z,13.88
2022-12-02T21:45:41.804Z,14.07
2022-12-02T21:48:09.486Z,14.18
2022-12-02T21:50:36.779Z,13.60
2022-12-02T21:53:04.104Z,13.02
2022-12-02T21:55:31.506Z,13.80
2022-12-02T21:57:58.996Z,14.20
2022-12-02T22:00:26.464Z,14.45
2022-12-02T22:02:53.855Z,14.73
2022-12-02T22:05:20.994Z,14.70
2022-12-02T22:07:48.526Z,14.02
2022-12-02T22:10:15.999Z,13.55
2022-12-02T22:12:43.536Z,12.65
2022-12-02T22:15:11.421Z,13.20
2022-12-02T22:17:39.014Z,14.95
2022-12-02T22:20:07.072Z,15.13
2022-12-02T22:22:34.361Z,15.13
2022-12-02T22:25:01.277Z,15.65
2022-12-02T22:27:28.686Z,14.13
2022-12-02T22:29:56.035Z,14.07
2022-12-02T22:32:23.425Z,14.85
2022-12-02T22:34:51.251Z,13.98
2022-12-02T22:37:18.847Z,12.52
2022-12-02T22:39:46.102Z,12.48
2022-12-02T22:42:13.360Z,13.40
2022-12-02T22:44:40.749Z,12.60
2022-12-02T22:47:07.660Z,12.38
2022-12-02T22:49:34.934Z,12.80
2022-12-02T22:52:02.169Z,12.48
2022-12-02T22:54:29.462Z,12.43
2022-12-02T22:56:56.731Z,12.23
2022-12-02T22:59:24.057Z,11.68
2022-12-02T23:01:51.075Z,11.82
2022-12-02T23:04:18.122Z,12.15
2022-12-02T23:06:45.014Z,11.18
2022-12-02T23:09:12.784Z,12.68
2022-12-02T23:11:39.674Z,10.18
2022-12-02T23:14:07.480Z,11.38
2022-12-02T23:16:34.870Z,12.10
2022-12-02T23:19:01.831Z,11.85
2022-12-02T23:21:28.780Z,10.43
2022-12-02T23:23:55.706Z,10.82
2022-12-02T23:26:23.007Z,12.68
2022-12-02T23:28:50.515Z,10.90
2022-12-02T23:31:18.122Z,11.07
2022-12-02T23:33:45.197Z,11.02
2022-12-02T23:36:12.056Z,10.68
2022-12-02T23:38:38.965Z,9.95
2022-12-02T23:41:05.990Z,10.63
2022-12-02T23:43:33.012Z,10.68
2022-12-02T23:46:00.051Z,10.70
2022-12-02T23:48:27.105Z,11.07
2022-12-02T23:50:54.363Z,10.75
2022-12-02T23:53:21.250Z,11.18
2022-12-02T23:55:48.145Z,11.20
2022-12-02T23:58:15.039Z,12.00
